Terminal Aerodrome Forecast
Issued by NWS Houston/Galveston, TX

Home | Current Version | Previous Version | Text Only | Print | Product List | Glossary On
Versions: 1 2 3 4 5 6 7 8 9 10 11 12 13 14 15 16 17 18 19 20 21 22 23 24 25 26 27 28 29 30 31 32 33 34 35 36
000
FTUS44 KHGX 232345 CCA
TAFCLL
TAF COR
KCLL 232345Z 2400/2424 VRB15KT P6SM -RA VCTS SCT080CB
     FM240100 09004KT P6SM SCT120
     FM240700 13003KT P6SM SCT250
     FM241400 06003KT P6SM SCT250
     FM242200 08008KT P6SM VCTS BKN060CB=

USA.gov is the U.S. government's official web portal to all federal, state and local government web resources and services.